createdAt,value
2019-03-08T00:00:35.875Z,10.28
2019-03-08T00:01:39.803Z,10.28
2019-03-08T00:02:43.815Z,10.17
2019-03-08T00:03:47.458Z,10.17
2019-03-08T00:04:51.094Z,10.10
2019-03-08T00:05:54.762Z,10.04
2019-03-08T00:06:58.470Z,9.96
2019-03-08T00:08:02.100Z,10.07
2019-03-08T00:09:06.681Z,10.07
2019-03-08T00:10:11.185Z,10.14
2019-03-08T00:11:14.821Z,10.12
2019-03-08T00:12:18.460Z,10.14
2019-03-08T00:13:22.166Z,10.16
2019-03-08T00:14:25.879Z,10.16
2019-03-08T00:15:29.621Z,10.16
2019-03-08T00:16:33.332Z,10.16
2019-03-08T00:17:37.343Z,10.12
2019-03-08T00:18:40.975Z,10.12
2019-03-08T00:19:44.638Z,10.17
2019-03-08T00:20:48.277Z,10.16
2019-03-08T00:21:51.918Z,10.15
2019-03-08T00:22:55.543Z,10.02
2019-03-08T00:23:59.179Z,9.98
2019-03-08T00:25:03.300Z,9.96
2019-03-08T00:26:06.939Z,9.85
2019-03-08T00:27:10.571Z,9.78
2019-03-08T00:28:14.282Z,9.78
2019-03-08T00:29:17.874Z,9.88
2019-03-08T00:30:21.515Z,9.94
2019-03-08T00:31:25.159Z,9.99
2019-03-08T00:32:29.064Z,10.00
2019-03-08T00:33:32.698Z,10.00
2019-03-08T00:34:36.330Z,9.98
2019-03-08T00:35:40.008Z,10.00
2019-03-08T00:36:43.564Z,9.95
2019-03-08T00:37:47.206Z,10.04
2019-03-08T00:38:50.846Z,10.04
2019-03-08T00:39:54.465Z,9.98
2019-03-08T00:40:58.190Z,9.99
2019-03-08T00:42:01.814Z,9.99
2019-03-08T00:43:05.450Z,9.94
2019-03-08T00:44:09.086Z,9.91
2019-03-08T00:45:17.137Z,9.91
2019-03-08T00:46:20.803Z,9.86
2019-03-08T00:47:27.399Z,9.86
2019-03-08T00:48:31.318Z,9.90
2019-03-08T00:49:35.418Z,10.04
2019-03-08T00:50:39.070Z,10.04
2019-03-08T00:51:42.740Z,10.06
2019-03-08T00:52:46.374Z,10.10
2019-03-08T00:53:50.009Z,10.10
2019-03-08T00:54:53.638Z,10.15
2019-03-08T00:55:57.274Z,10.15
2019-03-08T00:57:00.947Z,10.17
2019-03-08T00:58:04.784Z,10.17
2019-03-08T00:59:08.416Z,10.05
2019-03-08T01:00:20.295Z,10.05
2019-03-08T01:01:23.938Z,10.02
2019-03-08T01:02:27.951Z,10.02
2019-03-08T01:03:31.579Z,9.87
2019-03-08T01:04:35.678Z,9.81
2019-03-08T01:05:39.495Z,9.83
2019-03-08T01:06:43.411Z,9.88
2019-03-08T01:07:47.213Z,9.92
2019-03-08T01:08:50.865Z,9.96
2019-03-08T01:09:54.571Z,9.96
2019-03-08T01:10:58.474Z,9.88
2019-03-08T01:12:02.099Z,9.88
2019-03-08T01:13:05.869Z,9.87
2019-03-08T01:14:09.595Z,9.85
2019-03-08T01:15:15.897Z,9.90
2019-03-08T01:16:19.525Z,9.94
2019-03-08T01:17:23.162Z,9.95
2019-03-08T01:18:26.812Z,9.84
2019-03-08T01:19:30.454Z,9.63
2019-03-08T01:20:34.086Z,9.63
2019-03-08T01:21:37.795Z,9.65
2019-03-08T01:22:41.530Z,9.67
2019-03-08T01:23:45.498Z,9.76
2019-03-08T01:24:49.134Z,9.80
2019-03-08T01:25:52.768Z,9.78
2019-03-08T01:26:56.395Z,9.83
2019-03-08T01:28:05.593Z,9.76
2019-03-08T01:29:09.359Z,9.71
2019-03-08T01:30:13.290Z,9.71
2019-03-08T01:31:17.023Z,9.71
2019-03-08T01:32:20.724Z,9.74
2019-03-08T01:33:24.411Z,9.76
2019-03-08T01:34:28.466Z,9.71
2019-03-08T01:35:32.174Z,9.76
2019-03-08T01:36:35.795Z,9.76
2019-03-08T01:37:39.491Z,9.71
2019-03-08T01:38:43.527Z,9.68
2019-03-08T01:39:47.264Z,9.79
2019-03-08T01:40:50.900Z,9.79
2019-03-08T01:41:54.598Z,9.79
2019-03-08T01:42:58.228Z,9.85
2019-03-08T01:44:01.930Z,9.85
2019-03-08T01:45:07.594Z,9.93
2019-03-08T01:46:11.557Z,9.95
2019-03-08T01:47:15.255Z,9.96
2019-03-08T01:48:18.961Z,9.93
2019-03-08T01:49:22.608Z,9.92
2019-03-08T01:50:26.346Z,9.93
2019-03-08T01:51:29.981Z,9.93
2019-03-08T01:52:33.616Z,9.92
2019-03-08T01:53:37.524Z,9.83
2019-03-08T01:54:41.218Z,9.83
2019-03-08T01:55:45.074Z,9.92
2019-03-08T01:56:48.708Z,9.96
2019-03-08T01:57:52.337Z,9.95
2019-03-08T01:58:55.969Z,9.95
2019-03-08T01:59:59.605Z,9.97
2019-03-08T02:01:03.355Z,9.97
2019-03-08T02:02:07.055Z,9.89
2019-03-08T02:03:10.759Z,9.89
2019-03-08T02:04:14.383Z,9.90
2019-03-08T02:05:18.482Z,9.82
2019-03-08T02:06:22.166Z,9.89
2019-03-08T02:07:25.908Z,9.89
2019-03-08T02:08:29.619Z,9.80
2019-03-08T02:09:33.637Z,9.69
2019-03-08T02:10:37.450Z,9.72
2019-03-08T02:11:41.144Z,9.70
2019-03-08T02:12:44.747Z,9.88
2019-03-08T02:13:48.375Z,9.88
2019-03-08T02:14:52.164Z,9.90
2019-03-08T02:15:55.832Z,9.88
2019-03-08T02:16:59.519Z,9.88
2019-03-08T02:18:03.219Z,9.94
2019-03-08T02:19:06.845Z,9.96
2019-03-08T02:20:13.344Z,9.93
2019-03-08T02:21:16.983Z,9.87
2019-03-08T02:22:20.680Z,9.81
2019-03-08T02:23:24.425Z,9.77
2019-03-08T02:24:28.192Z,9.67
2019-03-08T02:25:32.076Z,9.61
2019-03-08T02:26:35.776Z,9.62
2019-03-08T02:27:39.548Z,9.62
2019-03-08T02:28:43.189Z,9.67
2019-03-08T02:29:46.895Z,9.67
2019-03-08T02:30:50.609Z,9.67
2019-03-08T02:31:54.250Z,9.66
2019-03-08T02:32:58.386Z,9.72
2019-03-08T02:34:02.010Z,9.79
2019-03-08T02:35:07.141Z,9.84
2019-03-08T02:36:11.076Z,9.87
2019-03-08T02:37:14.707Z,9.93
2019-03-08T02:38:18.808Z,9.85
2019-03-08T02:39:22.777Z,9.78
2019-03-08T02:40:29.257Z,9.69
2019-03-08T02:41:33.154Z,9.60
2019-03-08T02:42:36.798Z,9.50
2019-03-08T02:43:40.392Z,9.53
2019-03-08T02:44:44.036Z,9.56
2019-03-08T02:45:47.737Z,9.59
2019-03-08T02:46:51.367Z,9.55
2019-03-08T02:47:54.994Z,9.59
2019-03-08T02:48:58.663Z,9.60
2019-03-08T02:50:02.299Z,9.62
2019-03-08T02:51:05.922Z,9.61
2019-03-08T02:52:09.559Z,9.64
2019-03-08T02:53:13.267Z,9.66
2019-03-08T02:54:16.943Z,9.66
2019-03-08T02:55:20.579Z,9.72
2019-03-08T02:56:24.480Z,9.69
2019-03-08T02:57:28.102Z,9.59
2019-03-08T02:58:31.659Z,9.60
2019-03-08T02:59:35.740Z,9.64
2019-03-08T03:00:44.664Z,9.64
2019-03-08T03:01:48.290Z,9.74
2019-03-08T03:02:51.946Z,9.87
2019-03-08T03:03:55.573Z,9.87
2019-03-08T03:04:59.160Z,9.83
2019-03-08T03:06:02.861Z,9.90
2019-03-08T03:07:06.874Z,9.80
2019-03-08T03:08:10.513Z,9.80
2019-03-08T03:09:14.468Z,9.75
2019-03-08T03:10:18.351Z,9.55
2019-03-08T03:11:21.910Z,9.55
2019-03-08T03:12:25.540Z,9.39
2019-03-08T03:13:29.451Z,9.46
2019-03-08T03:14:33.083Z,9.46
2019-03-08T03:15:36.759Z,9.53
2019-03-08T03:16:40.390Z,9.60
2019-03-08T03:17:43.962Z,9.65
2019-03-08T03:18:47.597Z,9.65
2019-03-08T03:19:51.274Z,9.69
2019-03-08T03:20:54.949Z,9.69
2019-03-08T03:21:58.582Z,9.69
2019-03-08T03:23:02.223Z,9.62
2019-03-08T03:24:05.849Z,9.42
2019-03-08T03:25:14.130Z,9.34
2019-03-08T03:26:17.794Z,9.28
2019-03-08T03:27:21.441Z,9.20
2019-03-08T03:28:25.250Z,9.31
2019-03-08T03:29:28.925Z,9.37
2019-03-08T03:30:32.519Z,9.42
2019-03-08T03:31:36.144Z,9.42
2019-03-08T03:32:39.780Z,9.45
2019-03-08T03:33:43.395Z,9.41
2019-03-08T03:34:47.038Z,9.33
2019-03-08T03:35:51.106Z,9.38
2019-03-08T03:36:54.666Z,9.45
2019-03-08T03:37:58.311Z,9.38
2019-03-08T03:39:01.940Z,9.37
2019-03-08T03:40:11.267Z,9.30
2019-03-08T03:41:14.966Z,9.31
2019-03-08T03:42:18.613Z,9.28
2019-03-08T03:43:22.246Z,9.30
2019-03-08T03:44:25.885Z,9.29
2019-03-08T03:45:29.625Z,9.20
2019-03-08T03:46:33.262Z,9.16
2019-03-08T03:47:37.002Z,9.17
2019-03-08T03:48:40.632Z,9.21
2019-03-08T03:49:44.336Z,9.31
2019-03-08T03:50:47.963Z,9.34
2019-03-08T03:51:51.603Z,9.35
2019-03-08T03:52:55.332Z,9.29
2019-03-08T03:53:59.029Z,9.22
2019-03-08T03:55:02.673Z,9.19
2019-03-08T03:56:06.301Z,9.18
2019-03-08T03:57:09.999Z,9.14
2019-03-08T03:58:13.666Z,9.13
2019-03-08T03:59:17.365Z,9.22
2019-03-08T04:00:23.337Z,9.43
2019-03-08T04:01:34.652Z,9.43
2019-03-08T04:02:39.027Z,9.46
2019-03-08T04:03:42.693Z,9.47
2019-03-08T04:04:46.324Z,9.40
2019-03-08T04:05:50.032Z,9.34
2019-03-08T04:06:53.670Z,9.26
2019-03-08T04:07:57.439Z,9.18
2019-03-08T04:09:01.098Z,9.13
2019-03-08T04:10:07.485Z,9.18
2019-03-08T04:11:11.441Z,9.13
2019-03-08T04:12:15.154Z,9.16
2019-03-08T04:13:18.731Z,9.19
2019-03-08T04:14:22.409Z,9.22
2019-03-08T04:15:26.033Z,9.24
2019-03-08T04:16:29.662Z,9.19
2019-03-08T04:17:33.550Z,9.19
2019-03-08T04:18:37.575Z,9.24
2019-03-08T04:19:41.336Z,9.24
2019-03-08T04:20:45.136Z,8.99
2019-03-08T04:21:48.779Z,8.87
2019-03-08T04:22:52.409Z,8.85
2019-03-08T04:23:56.044Z,8.71
2019-03-08T04:24:59.715Z,8.70
2019-03-08T04:26:03.418Z,8.65
2019-03-08T04:27:07.419Z,8.69
2019-03-08T04:28:11.074Z,8.71
2019-03-08T04:29:14.758Z,8.73
2019-03-08T04:30:21.780Z,8.77
2019-03-08T04:31:27.853Z,8.80
2019-03-08T04:32:31.492Z,8.73
2019-03-08T04:33:35.135Z,8.71
2019-03-08T04:34:39.185Z,8.62
2019-03-08T04:35:42.857Z,8.54
2019-03-08T04:36:46.498Z,8.49
2019-03-08T04:37:50.144Z,8.42
2019-03-08T04:38:53.772Z,8.38
2019-03-08T04:39:57.411Z,8.41
2019-03-08T04:41:01.146Z,8.43
2019-03-08T04:42:04.837Z,8.42
2019-03-08T04:43:08.468Z,8.43
2019-03-08T04:44:12.150Z,8.48
2019-03-08T04:45:16.762Z,8.53
2019-03-08T04:46:20.437Z,8.52
2019-03-08T04:47:24.075Z,8.45
2019-03-08T04:48:27.703Z,8.37
2019-03-08T04:49:31.622Z,8.27
2019-03-08T04:50:35.270Z,8.23
2019-03-08T04:51:39.873Z,8.19
2019-03-08T04:52:43.513Z,8.12
2019-03-08T04:53:47.136Z,8.14
2019-03-08T04:54:50.771Z,8.10
2019-03-08T04:55:54.446Z,8.04
2019-03-08T04:56:58.038Z,8.07
2019-03-08T04:58:01.771Z,8.09
2019-03-08T04:59:05.718Z,8.11
2019-03-08T05:00:17.266Z,8.13
2019-03-08T05:01:20.911Z,8.16
2019-03-08T05:02:24.994Z,8.10
2019-03-08T05:03:28.624Z,8.13
2019-03-08T05:04:32.258Z,8.21
2019-03-08T05:05:35.892Z,8.23
2019-03-08T05:06:39.812Z,8.25
2019-03-08T05:07:43.580Z,8.28
2019-03-08T05:08:47.210Z,8.25
2019-03-08T05:09:50.852Z,8.18
2019-03-08T05:10:54.491Z,8.14
2019-03-08T05:11:58.123Z,8.13
2019-03-08T05:13:01.801Z,8.17
2019-03-08T05:14:05.450Z,8.07
2019-03-08T05:15:09.088Z,8.10
2019-03-08T05:16:12.750Z,8.09
2019-03-08T05:17:16.449Z,8.02
2019-03-08T05:18:20.071Z,7.98
2019-03-08T05:19:23.625Z,8.05
2019-03-08T05:20:27.442Z,8.11
2019-03-08T05:21:31.261Z,8.13
2019-03-08T05:22:34.830Z,8.13
2019-03-08T05:23:38.485Z,8.09
2019-03-08T05:24:42.421Z,8.08
2019-03-08T05:25:46.054Z,8.05
2019-03-08T05:26:49.686Z,8.02
2019-03-08T05:27:53.321Z,7.92
2019-03-08T05:28:56.986Z,7.86
2019-03-08T05:30:00.619Z,7.86
2019-03-08T05:31:04.258Z,7.82
2019-03-08T05:32:07.892Z,7.82
2019-03-08T05:33:11.517Z,7.81
2019-03-08T05:34:15.264Z,7.86
2019-03-08T05:35:19.088Z,7.84
2019-03-08T05:36:23.068Z,7.84
2019-03-08T05:37:27.021Z,7.84
2019-03-08T05:38:30.659Z,7.85
2019-03-08T05:39:34.328Z,7.85
2019-03-08T05:40:37.965Z,7.83
2019-03-08T05:41:41.606Z,7.74
2019-03-08T05:42:45.254Z,7.70
2019-03-08T05:43:48.976Z,7.71
2019-03-08T05:44:52.577Z,7.67
2019-03-08T05:45:56.649Z,7.76
2019-03-08T05:47:00.198Z,7.80
2019-03-08T05:48:03.827Z,7.84
2019-03-08T05:49:07.460Z,7.81
2019-03-08T05:50:12.335Z,7.79
2019-03-08T05:51:16.570Z,7.78
2019-03-08T05:52:20.235Z,7.76
2019-03-08T05:53:23.801Z,7.77
2019-03-08T05:54:27.435Z,7.84
2019-03-08T05:55:31.075Z,7.78
2019-03-08T05:56:34.707Z,7.83
2019-03-08T05:57:38.338Z,7.85
2019-03-08T05:58:42.005Z,7.88
2019-03-08T05:59:45.639Z,7.94
2019-03-08T06:00:49.278Z,7.98
2019-03-08T06:01:52.986Z,8.06
2019-03-08T06:02:56.622Z,8.13
2019-03-08T06:04:00.278Z,8.11
2019-03-08T06:05:05.184Z,8.14
2019-03-08T06:06:08.821Z,8.21
2019-03-08T06:07:12.465Z,8.25
2019-03-08T06:08:16.095Z,8.28
2019-03-08T06:09:19.766Z,8.33
2019-03-08T06:10:28.102Z,8.34
2019-03-08T06:11:31.747Z,8.34
2019-03-08T06:12:35.396Z,8.35
2019-03-08T06:13:39.021Z,8.39
2019-03-08T06:14:43.057Z,8.43
2019-03-08T06:15:47.069Z,8.48
2019-03-08T06:16:50.715Z,8.49
2019-03-08T06:17:56.367Z,8.52
2019-03-08T06:18:59.632Z,8.52
2019-03-08T06:20:03.510Z,8.62
2019-03-08T06:21:07.327Z,8.69
2019-03-08T06:22:11.106Z,8.78
2019-03-08T06:23:14.743Z,8.92
2019-03-08T06:24:18.389Z,9.05
2019-03-08T06:25:22.056Z,9.11
2019-03-08T06:26:25.752Z,9.12
2019-03-08T06:27:29.401Z,9.20
2019-03-08T06:28:33.034Z,9.33
2019-03-08T06:29:36.661Z,9.42
2019-03-08T06:30:40.328Z,9.52
2019-03-08T06:31:44.038Z,9.52
2019-03-08T06:32:47.677Z,9.60
2019-03-08T06:33:51.243Z,9.61
2019-03-08T06:34:54.980Z,9.72
2019-03-08T06:35:58.645Z,9.81
2019-03-08T06:37:02.317Z,9.81
2019-03-08T06:38:05.952Z,9.80
2019-03-08T06:39:09.650Z,9.79
2019-03-08T06:40:14.383Z,9.82
2019-03-08T06:41:18.059Z,9.85
2019-03-08T06:42:21.689Z,9.88
2019-03-08T06:43:25.325Z,9.98
2019-03-08T06:44:28.976Z,10.01
2019-03-08T06:45:32.617Z,10.08
2019-03-08T06:46:36.286Z,10.12
2019-03-08T06:47:39.926Z,10.24
2019-03-08T06:48:43.571Z,10.41
2019-03-08T06:49:47.490Z,10.56
2019-03-08T06:50:51.129Z,10.60
2019-03-08T06:51:54.727Z,10.56
2019-03-08T06:52:58.370Z,10.58
2019-03-08T06:54:02.025Z,10.65
2019-03-08T06:55:07.365Z,10.65
2019-03-08T06:56:10.937Z,10.65
2019-03-08T06:57:14.652Z,10.74
2019-03-08T06:58:19.903Z,10.99
2019-03-08T06:59:25.184Z,11.16
2019-03-08T07:00:36.276Z,11.20
2019-03-08T07:01:40.417Z,11.23
2019-03-08T07:02:44.098Z,11.23
2019-03-08T07:03:47.741Z,11.30
2019-03-08T07:04:51.388Z,11.55
2019-03-08T07:05:55.023Z,11.57
2019-03-08T07:06:58.842Z,11.59
2019-03-08T07:08:02.506Z,11.68
2019-03-08T07:09:07.042Z,11.68
2019-03-08T07:10:11.019Z,11.77
2019-03-08T07:11:14.658Z,11.92
2019-03-08T07:12:18.306Z,11.88
2019-03-08T07:13:21.962Z,11.88
2019-03-08T07:14:25.612Z,12.12
2019-03-08T07:15:29.319Z,12.10
2019-03-08T07:16:33.240Z,12.09
2019-03-08T07:17:36.875Z,12.09
2019-03-08T07:18:40.666Z,12.26
2019-03-08T07:19:49.383Z,12.26
2019-03-08T07:20:55.057Z,12.21
2019-03-08T07:22:00.337Z,12.34
2019-03-08T07:23:11.813Z,12.42
2019-03-08T07:24:19.851Z,12.41
2019-03-08T07:25:40.779Z,12.38
2019-03-08T07:26:58.034Z,12.58
2019-03-08T07:28:19.646Z,12.94
2019-03-08T07:29:41.403Z,12.94
2019-03-08T07:31:04.878Z,13.19
2019-03-08T07:32:27.018Z,13.19
2019-03-08T07:33:32.295Z,13.16
2019-03-08T07:34:37.559Z,13.18
2019-03-08T07:35:45.653Z,13.40
2019-03-08T07:36:50.936Z,13.69
2019-03-08T07:38:02.196Z,13.89
2019-03-08T07:39:12.930Z,13.96
2019-03-08T07:40:36.663Z,14.07
2019-03-08T07:41:47.733Z,14.17
2019-03-08T07:43:05.406Z,14.57
2019-03-08T07:44:10.689Z,14.71
2019-03-08T07:45:31.015Z,14.92
2019-03-08T07:46:54.462Z,15.04
2019-03-08T07:48:08.905Z,15.76
2019-03-08T07:49:16.930Z,15.76
2019-03-08T07:50:25.205Z,15.93
2019-03-08T07:51:30.483Z,16.27
2019-03-08T07:52:35.804Z,16.49
2019-03-08T07:53:46.940Z,16.47
2019-03-08T07:54:55.318Z,16.56
2019-03-08T07:56:03.369Z,16.76
2019-03-08T07:57:14.117Z,17.11
2019-03-08T07:58:22.361Z,17.33
2019-03-08T07:59:33.480Z,17.70
2019-03-08T08:00:50.501Z,17.99
2019-03-08T08:01:58.571Z,18.25
2019-03-08T08:03:15.988Z,18.34
2019-03-08T08:04:37.556Z,18.29
2019-03-08T08:05:57.368Z,18.33
2019-03-08T08:06:58.534Z,18.60
2019-03-08T08:08:15.650Z,18.77
2019-03-08T08:09:21.264Z,18.65
2019-03-08T08:10:26.581Z,18.29
2019-03-08T08:11:34.965Z,18.01
2019-03-08T08:12:56.667Z,18.14
2019-03-08T08:14:07.691Z,18.55
2019-03-08T08:15:13.672Z,19.08
2019-03-08T08:16:34.016Z,19.39
2019-03-08T08:17:39.305Z,19.71
2019-03-08T08:19:02.482Z,20.06
2019-03-08T08:20:16.879Z,20.04
2019-03-08T08:21:28.469Z,20.06
2019-03-08T08:22:33.783Z,20.35
2019-03-08T08:23:39.069Z,20.65
2019-03-08T08:25:01.618Z,20.88
2019-03-08T08:26:10.078Z,20.92
2019-03-08T08:27:27.332Z,21.02
2019-03-08T08:28:32.656Z,21.15
2019-03-08T08:29:37.940Z,20.85
2019-03-08T08:30:43.163Z,20.52
2019-03-08T08:31:51.210Z,20.73
2019-03-08T08:33:08.410Z,20.93
2019-03-08T08:34:22.398Z,21.15
2019-03-08T08:35:45.710Z,21.31
2019-03-08T08:37:09.125Z,21.15
2019-03-08T08:38:14.396Z,21.15
2019-03-08T08:39:22.397Z,21.25
2019-03-08T08:40:33.968Z,21.26
2019-03-08T08:41:39.253Z,21.16
2019-03-08T08:42:56.534Z,21.03
2019-03-08T08:44:04.940Z,20.89
2019-03-08T08:45:14.931Z,20.74
2019-03-08T08:46:32.409Z,20.41
2019-03-08T08:47:40.609Z,20.25
2019-03-08T08:48:46.006Z,20.20
2019-03-08T08:49:55.732Z,20.16
2019-03-08T08:50:58.581Z,20.05
2019-03-08T08:52:06.470Z,20.12
2019-03-08T08:53:17.378Z,20.10
2019-03-08T08:54:22.947Z,20.26
2019-03-08T08:55:46.261Z,20.58
2019-03-08T08:56:57.264Z,20.55
2019-03-08T08:58:11.574Z,20.03
2019-03-08T08:59:19.735Z,20.13
2019-03-08T09:00:41.225Z,20.40
2019-03-08T09:01:58.309Z,20.61
2019-03-08T09:03:19.784Z,20.89
2019-03-08T09:04:31.077Z,21.01
2019-03-08T09:05:36.329Z,21.41
2019-03-08T09:06:47.791Z,21.53
2019-03-08T09:07:58.611Z,21.68
2019-03-08T09:09:03.901Z,21.80
2019-03-08T09:10:11.785Z,22.09
2019-03-08T09:11:22.903Z,22.61
2019-03-08T09:12:28.195Z,23.13
2019-03-08T09:13:51.675Z,23.24
2019-03-08T09:15:03.297Z,23.59
2019-03-08T09:16:08.843Z,24.44
2019-03-08T09:17:17.302Z,24.71
2019-03-08T09:18:22.758Z,24.85
2019-03-08T09:19:34.401Z,24.43
2019-03-08T09:20:48.581Z,24.15
2019-03-08T09:22:03.138Z,24.02
2019-03-08T09:23:14.355Z,24.18
2019-03-08T09:24:25.215Z,23.77
2019-03-08T09:25:30.499Z,22.90
2019-03-08T09:26:35.813Z,22.96
2019-03-08T09:27:57.223Z,23.01
2019-03-08T09:29:02.497Z,23.07
2019-03-08T09:30:25.584Z,22.97
2019-03-08T09:31:31.015Z,22.82
2019-03-08T09:32:36.303Z,22.30
2019-03-08T09:33:48.048Z,22.61
2019-03-08T09:35:05.442Z,22.99
2019-03-08T09:36:13.811Z,23.43
2019-03-08T09:37:22.070Z,23.45
2019-03-08T09:38:27.380Z,23.53
2019-03-08T09:39:32.660Z,23.67
2019-03-08T09:40:56.947Z,23.92
2019-03-08T09:42:04.773Z,24.44
2019-03-08T09:43:24.918Z,25.15
2019-03-08T09:44:30.207Z,25.62
2019-03-08T09:45:50.516Z,26.16
2019-03-08T09:46:55.746Z,26.63
2019-03-08T09:48:03.982Z,27.06
2019-03-08T09:49:18.409Z,27.31
2019-03-08T09:50:30.091Z,27.06
2019-03-08T09:51:41.565Z,27.63
2019-03-08T09:52:46.853Z,28.26
2019-03-08T09:53:52.502Z,28.62
2019-03-08T09:54:58.569Z,28.97
2019-03-08T09:56:09.630Z,29.22
2019-03-08T09:57:14.901Z,29.63
2019-03-08T09:58:36.455Z,30.01
2019-03-08T09:59:56.927Z,30.14
2019-03-08T10:01:05.522Z,30.20
2019-03-08T10:02:26.266Z,30.44
2019-03-08T10:03:46.771Z,30.71
2019-03-08T10:04:57.378Z,30.90
2019-03-08T10:06:05.700Z,30.26
2019-03-08T10:07:14.435Z,29.82
2019-03-08T10:08:19.739Z,29.67
2019-03-08T10:09:37.317Z,29.73
2019-03-08T10:10:57.984Z,29.83
2019-03-08T10:12:06.243Z,29.96
2019-03-08T10:13:14.187Z,29.71
2019-03-08T10:14:19.403Z,29.82
2019-03-08T10:15:33.880Z,30.21
2019-03-08T10:16:42.002Z,30.15
2019-03-08T10:17:47.277Z,30.29
2019-03-08T10:18:52.480Z,30.28
2019-03-08T10:20:09.544Z,30.41
2019-03-08T10:21:15.091Z,30.48
2019-03-08T10:22:29.436Z,30.44
2019-03-08T10:23:46.881Z,30.50
2019-03-08T10:25:04.443Z,30.60
2019-03-08T10:26:22.098Z,30.52
2019-03-08T10:27:27.364Z,30.66
2019-03-08T10:28:51.145Z,30.63
2019-03-08T10:29:56.418Z,30.73
2019-03-08T10:31:04.091Z,30.91
2019-03-08T10:32:21.507Z,30.93
2019-03-08T10:33:46.710Z,30.79
2019-03-08T10:34:50.959Z,30.40
2019-03-08T10:36:05.606Z,29.99
2019-03-08T10:37:10.875Z,30.07
2019-03-08T10:38:22.717Z,30.15
2019-03-08T10:39:32.311Z,30.43
2019-03-08T10:40:46.017Z,30.73
2019-03-08T10:41:51.550Z,30.57
2019-03-08T10:42:58.768Z,30.53
2019-03-08T10:44:09.096Z,30.50
2019-03-08T10:45:11.954Z,30.46
2019-03-08T10:46:20.097Z,30.29
2019-03-08T10:47:41.571Z,29.90
2019-03-08T10:49:04.942Z,29.67
2019-03-08T10:50:12.886Z,29.16
2019-03-08T10:51:23.830Z,29.38
2019-03-08T10:52:29.150Z,29.77
2019-03-08T10:54:00.390Z,30.21
2019-03-08T10:55:11.554Z,30.29
2019-03-08T10:56:22.597Z,30.68
2019-03-08T10:57:30.720Z,30.61
2019-03-08T10:58:35.998Z,30.37
2019-03-08T10:59:44.218Z,30.56
2019-03-08T11:00:58.558Z,30.70
2019-03-08T11:02:09.782Z,31.03
2019-03-08T11:03:15.068Z,31.15
2019-03-08T11:04:29.540Z,31.26
2019-03-08T11:05:34.825Z,31.15
2019-03-08T11:06:58.597Z,31.38
2019-03-08T11:08:29.582Z,31.37
2019-03-08T11:09:44.590Z,31.26
2019-03-08T11:10:52.706Z,31.81
2019-03-08T11:12:14.120Z,31.75
2019-03-08T11:13:43.180Z,32.02
2019-03-08T11:14:53.862Z,32.12
2019-03-08T11:15:59.133Z,32.81
2019-03-08T11:17:19.291Z,33.05
2019-03-08T11:18:24.822Z,33.09
2019-03-08T11:19:30.093Z,32.88
2019-03-08T11:20:51.687Z,33.05
2019-03-08T11:22:09.205Z,33.56
2019-03-08T11:23:20.350Z,33.64
2019-03-08T11:24:42.128Z,33.93
2019-03-08T11:25:53.446Z,33.91
2019-03-08T11:27:07.459Z,34.03
2019-03-08T11:28:29.314Z,33.75
2019-03-08T11:29:34.584Z,33.97
2019-03-08T11:30:42.891Z,33.83
2019-03-08T11:31:51.379Z,33.46
2019-03-08T11:32:59.365Z,33.48
2019-03-08T11:34:13.844Z,33.32
2019-03-08T11:35:31.097Z,33.47
2019-03-08T11:36:42.263Z,33.63
2019-03-08T11:38:03.332Z,33.24
2019-03-08T11:39:22.983Z,31.90
2019-03-08T11:40:28.257Z,31.27
2019-03-08T11:41:33.532Z,31.16
2019-03-08T11:42:41.852Z,31.41
2019-03-08T11:43:47.153Z,31.51
2019-03-08T11:44:58.440Z,31.75
2019-03-08T11:46:03.742Z,32.04
2019-03-08T11:47:11.704Z,32.63
2019-03-08T11:48:23.034Z,33.39
2019-03-08T11:49:46.320Z,33.74
2019-03-08T11:51:07.802Z,33.64
2019-03-08T11:52:31.159Z,33.41
2019-03-08T11:53:56.234Z,32.76
2019-03-08T11:55:15.644Z,32.42
2019-03-08T11:56:37.059Z,32.37
2019-03-08T11:57:54.323Z,31.96
2019-03-08T11:59:14.483Z,31.99
2019-03-08T12:00:22.596Z,31.95
2019-03-08T12:01:30.660Z,31.36
2019-03-08T12:02:38.049Z,30.99
2019-03-08T12:03:59.188Z,30.63
2019-03-08T12:05:20.680Z,30.63
2019-03-08T12:06:41.306Z,30.19
2019-03-08T12:07:49.256Z,29.85
2019-03-08T12:08:54.535Z,29.58
2019-03-08T12:10:15.950Z,29.79
2019-03-08T12:11:21.331Z,29.84
2019-03-08T12:12:26.604Z,30.03
2019-03-08T12:13:32.346Z,29.95
2019-03-08T12:14:37.719Z,29.79
2019-03-08T12:15:59.428Z,29.76
2019-03-08T12:17:04.759Z,29.98
2019-03-08T12:18:10.036Z,29.97
2019-03-08T12:19:31.555Z,29.99
2019-03-08T12:20:42.646Z,30.02
2019-03-08T12:21:47.920Z,30.16
2019-03-08T12:23:09.351Z,30.22
2019-03-08T12:24:14.620Z,30.43
2019-03-08T12:25:22.917Z,30.42
2019-03-08T12:26:37.257Z,30.70
2019-03-08T12:27:42.561Z,30.97
2019-03-08T12:29:04.362Z,30.86
2019-03-08T12:30:21.210Z,31.00
2019-03-08T12:31:33.127Z,30.93
2019-03-08T12:32:41.750Z,30.54
2019-03-08T12:34:02.219Z,30.15
2019-03-08T12:35:25.890Z,30.00
2019-03-08T12:36:31.177Z,29.59
2019-03-08T12:37:52.393Z,29.59
2019-03-08T12:39:09.779Z,29.52
2019-03-08T12:40:15.811Z,29.25
2019-03-08T12:41:21.100Z,28.91
2019-03-08T12:42:42.864Z,28.85
2019-03-08T12:43:54.480Z,28.59
2019-03-08T12:45:05.956Z,28.19
2019-03-08T12:46:23.179Z,28.10
2019-03-08T12:47:28.799Z,28.08
2019-03-08T12:48:43.646Z,28.08
2019-03-08T12:49:51.910Z,28.03
2019-03-08T12:51:09.465Z,27.82
2019-03-08T12:52:23.833Z,27.63
2019-03-08T12:53:37.756Z,27.38
2019-03-08T12:54:45.746Z,27.06
2019-03-08T12:55:53.645Z,26.88
2019-03-08T12:57:10.871Z,26.55
2019-03-08T12:58:28.082Z,26.45
2019-03-08T12:59:49.571Z,26.53
2019-03-08T13:01:00.879Z,26.26
2019-03-08T13:02:18.527Z,26.01
2019-03-08T13:03:29.476Z,26.18
2019-03-08T13:04:43.550Z,26.28
2019-03-08T13:06:04.907Z,26.38
2019-03-08T13:07:28.502Z,26.45
2019-03-08T13:08:38.937Z,26.57
2019-03-08T13:09:44.209Z,26.61
2019-03-08T13:10:47.842Z,26.71
2019-03-08T13:11:51.483Z,26.83
2019-03-08T13:12:55.179Z,27.00
2019-03-08T13:13:58.793Z,27.08
2019-03-08T13:15:02.502Z,27.12
2019-03-08T13:16:06.227Z,27.21
2019-03-08T13:17:09.867Z,27.06
2019-03-08T13:18:13.712Z,27.02
2019-03-08T13:19:19.280Z,27.02
2019-03-08T13:20:23.096Z,27.14
2019-03-08T13:21:26.820Z,27.25
2019-03-08T13:22:30.451Z,27.32
2019-03-08T13:23:34.116Z,27.45
2019-03-08T13:24:37.841Z,27.47
2019-03-08T13:25:41.476Z,27.45
2019-03-08T13:26:45.127Z,27.62
2019-03-08T13:27:48.739Z,27.72
2019-03-08T13:28:56.909Z,27.76
2019-03-08T13:30:00.648Z,27.66
2019-03-08T13:31:04.319Z,27.71
2019-03-08T13:32:07.955Z,27.77
2019-03-08T13:33:11.591Z,27.63
2019-03-08T13:34:15.515Z,27.29
2019-03-08T13:35:19.335Z,27.12
2019-03-08T13:36:22.959Z,26.81
2019-03-08T13:37:26.662Z,26.38
2019-03-08T13:38:30.375Z,26.28
2019-03-08T13:39:34.017Z,26.26
2019-03-08T13:40:37.575Z,26.02
2019-03-08T13:41:41.214Z,25.86
2019-03-08T13:42:44.853Z,25.77
2019-03-08T13:43:49.048Z,25.52
2019-03-08T13:44:52.779Z,25.27
2019-03-08T13:45:56.418Z,25.35
2019-03-08T13:47:00.044Z,25.44
2019-03-08T13:48:03.669Z,25.56
2019-03-08T13:49:07.480Z,25.65
2019-03-08T13:50:13.831Z,25.73
2019-03-08T13:51:17.471Z,25.76
2019-03-08T13:52:21.101Z,25.72
2019-03-08T13:53:24.729Z,25.85
2019-03-08T13:54:28.363Z,25.98
2019-03-08T13:55:32.035Z,26.17
2019-03-08T13:56:35.687Z,26.18
2019-03-08T13:57:39.324Z,26.18
2019-03-08T13:58:42.966Z,26.09
2019-03-08T13:59:46.606Z,25.94
2019-03-08T14:00:50.285Z,25.86
2019-03-08T14:01:53.858Z,25.70
2019-03-08T14:02:57.490Z,25.62
2019-03-08T14:04:01.047Z,25.42
2019-03-08T14:05:06.462Z,25.32
2019-03-08T14:06:10.206Z,25.19
2019-03-08T14:07:13.856Z,25.12
2019-03-08T14:08:17.537Z,24.88
2019-03-08T14:09:21.189Z,24.81
2019-03-08T14:10:24.851Z,24.70
2019-03-08T14:11:28.519Z,24.61
2019-03-08T14:12:32.145Z,24.54
2019-03-08T14:13:35.862Z,24.46
2019-03-08T14:14:39.495Z,24.40
2019-03-08T14:15:43.216Z,24.39
2019-03-08T14:16:46.819Z,24.23
2019-03-08T14:17:50.469Z,24.24
2019-03-08T14:18:54.188Z,24.19
2019-03-08T14:19:57.957Z,24.21
2019-03-08T14:21:02.729Z,24.31
2019-03-08T14:22:06.836Z,24.37
2019-03-08T14:23:10.482Z,24.44
2019-03-08T14:24:14.161Z,24.28
2019-03-08T14:25:17.795Z,24.34
2019-03-08T14:26:21.421Z,24.37
2019-03-08T14:27:25.403Z,24.39
2019-03-08T14:28:29.134Z,24.40
2019-03-08T14:29:32.712Z,24.37
2019-03-08T14:30:38.189Z,24.18
2019-03-08T14:31:45.445Z,24.09
2019-03-08T14:32:48.911Z,24.05
2019-03-08T14:33:52.892Z,24.05
2019-03-08T14:34:56.458Z,24.05
2019-03-08T14:36:02.993Z,24.05